Time;durP1;ratioP1;P1;durP2;ratioP2;P2;SDS_P1;SDS_P2;PMS_P1;PMS_P2;Temp;Humidity;BMP_temperature;BMP_pressure;BME280_temperature;BME280_humidity;BME280_pressure;Samples;Min_cycle;Max_cycle;Signal;HPM_P1;HPM_P2
2023/01/09 00:01:27;;;;;;;51.10;24.20;;;;;;;4.13;100.00;98731.55;109595;1251;58934;-63
2023/01/09 00:04:16;;;;;;;46.80;22.10;;;;;;;4.11;100.00;98727.97;109446;1252;59109;-64
2023/01/09 00:07:04;;;;;;;50.10;23.00;;;;;;;4.10;100.00;98723.34;109583;1252;73117;-65
2023/01/09 00:09:51;;;;;;;50.40;24.40;;;;;;;4.08;100.00;98724.34;109657;1251;66328;-64
2023/01/09 00:12:40;;;;;;;46.60;21.00;;;;;;;4.04;100.00;98720.41;109528;1252;73007;-63
2023/01/09 00:15:28;;;;;;;40.30;18.00;;;;;;;4.05;100.00;98729.45;109590;1251;60320;-64
2023/01/09 00:18:16;;;;;;;50.40;23.50;;;;;;;4.02;100.00;98717.73;108821;1252;1003033;-62
2023/01/09 00:21:10;;;;;;;49.40;22.90;;;;;;;4.02;100.00;98713.15;109568;1251;73256;-63
2023/01/09 00:23:58;;;;;;;50.20;24.00;;;;;;;4.05;100.00;98707.90;109582;1251;68987;-64
2023/01/09 00:26:47;;;;;;;52.30;24.20;;;;;;;4.03;100.00;98698.90;109593;1252;72535;-64
2023/01/09 00:29:36;;;;;;;51.50;23.60;;;;;;;4.00;100.00;98684.90;109525;1253;58953;-64
2023/01/09 00:32:24;;;;;;;53.40;25.00;;;;;;;4.02;100.00;98689.36;109595;1252;60282;-64
2023/01/09 00:35:16;;;;;;;51.10;22.40;;;;;;;4.00;100.00;98682.98;109608;1252;72456;-64
2023/01/09 00:38:04;;;;;;;51.70;23.70;;;;;;;3.98;100.00;98682.80;109625;1253;68664;-64
2023/01/09 00:40:54;;;;;;;48.60;21.00;;;;;;;3.98;100.00;98677.89;109538;1252;71116;-63
2023/01/09 00:43:52;;;;;;;49.00;21.80;;;;;;;3.95;100.00;98680.86;109488;1252;59392;-63
2023/01/09 00:46:46;;;;;;;49.50;21.60;;;;;;;3.87;100.00;98676.86;109579;1251;60179;-62
2023/01/09 00:49:35;;;;;;;53.00;23.30;;;;;;;3.92;100.00;98678.30;108822;1252;1002089;-65
2023/01/09 00:52:24;;;;;;;48.70;24.40;;;;;;;3.93;100.00;98674.70;108850;1251;1002136;-63
2023/01/09 00:55:13;;;;;;;53.10;22.50;;;;;;;3.93;100.00;98676.81;109577;1252;72754;-62
2023/01/09 00:58:01;;;;;;;52.70;23.10;;;;;;;3.92;100.00;98675.26;109559;1251;60731;-63
2023/01/09 01:00:49;;;;;;;51.50;25.50;;;;;;;3.91;100.00;98676.09;109605;1252;61277;-63
2023/01/09 01:03:39;;;;;;;51.60;23.00;;;;;;;3.89;100.00;98676.37;109591;1252;73094;-65
2023/01/09 01:09:33;;;;;;;53.10;21.90;;;;;;;3.87;100.00;98667.61;109479;1252;72722;-64
2023/01/09 01:12:22;;;;;;;53.20;24.20;;;;;;;3.85;100.00;98668.92;109559;1252;59722;-65
2023/01/09 01:15:11;;;;;;;49.50;22.40;;;;;;;3.84;100.00;98668.70;109498;1252;60324;-64
2023/01/09 01:17:59;;;;;;;51.10;23.60;;;;;;;3.85;100.00;98670.04;106564;1252;1015285;-63
2023/01/09 01:20:47;;;;;;;50.30;24.70;;;;;;;3.83;100.00;98674.02;109620;1252;67812;-62
2023/01/09 01:23:36;;;;;;;51.20;22.40;;;;;;;3.82;100.00;98666.75;109594;1252;72745;-63
2023/01/09 01:26:23;;;;;;;48.90;22.60;;;;;;;3.81;100.00;98660.81;109580;1252;59292;-62
2023/01/09 01:29:11;;;;;;;53.50;23.70;;;;;;;3.81;100.00;98664.17;109561;1252;60014;-63
2023/01/09 01:32:00;;;;;;;51.60;22.40;;;;;;;3.79;100.00;98670.98;109583;1251;71017;-63
2023/01/09 01:34:48;;;;;;;49.90;22.90;;;;;;;3.76;100.00;98674.14;109625;1252;67068;-63
2023/01/09 01:37:37;;;;;;;53.80;23.10;;;;;;;3.75;100.00;98675.30;109594;1251;71243;-65
2023/01/09 01:40:25;;;;;;;58.80;24.60;;;;;;;3.72;100.00;98668.45;109585;1252;59411;-64
2023/01/09 01:43:13;;;;;;;46.50;22.80;;;;;;;3.72;100.00;98668.98;109622;1251;59154;-62
2023/01/09 01:46:01;;;;;;;48.60;21.70;;;;;;;3.72;100.00;98666.36;109566;1252;70741;-63
2023/01/09 01:49:09;;;;;;;50.00;23.60;;;;;;;3.72;100.00;98655.30;109576;1252;66373;-64
2023/01/09 01:51:58;;;;;;;48.50;21.60;;;;;;;3.74;100.00;98653.09;109615;1252;71508;-63
2023/01/09 01:54:47;;;;;;;48.60;21.50;;;;;;;3.75;100.00;98653.52;109480;1251;61105;-63
2023/01/09 01:57:39;;;;;;;51.70;23.60;;;;;;;3.80;100.00;98650.42;109643;1251;61340;-63
2023/01/09 02:00:34;;;;;;;52.10;23.30;;;;;;;3.79;100.00;98650.15;109572;1252;72327;-64
2023/01/09 02:03:27;;;;;;;51.90;24.30;;;;;;;3.78;100.00;98644.36;109532;1252;67833;-63
2023/01/09 02:06:15;;;;;;;50.50;22.30;;;;;;;3.79;100.00;98643.27;109500;1253;72711;-64
2023/01/09 02:09:04;;;;;;;50.90;23.10;;;;;;;3.77;100.00;98644.95;109561;1252;57329;-63
2023/01/09 02:11:56;;;;;;;48.00;22.20;;;;;;;3.75;100.00;98641.23;109454;1252;60433;-62
2023/01/09 02:14:47;;;;;;;48.80;21.70;;;;;;;3.74;100.00;98642.73;109501;1251;71954;-63
2023/01/09 02:17:54;;;;;;;53.40;24.30;;;;;;;3.70;100.00;98644.55;109341;1252;67609;-64
2023/01/09 02:20:56;;;;;;;48.60;24.00;;;;;;;3.67;100.00;98641.30;109566;1251;71497;-63
2023/01/09 02:24:08;;;;;;;49.50;23.20;;;;;;;3.71;100.00;98646.95;109498;1252;57920;-63
2023/01/09 02:27:02;;;;;;;48.30;22.40;;;;;;;3.71;100.00;98648.06;109638;1255;60362;-63
2023/01/09 02:30:42;;;;;;;50.70;23.20;;;;;;;3.72;100.00;98632.71;109608;1252;71844;-64
2023/01/09 02:34:28;;;;;;;49.20;22.60;;;;;;;3.71;100.00;98628.05;109016;1259;68628;-62
2023/01/09 02:37:34;;;;;;;47.60;23.40;;;;;;;3.68;100.00;98633.16;109073;1259;73435;-64
2023/01/09 02:40:32;;;;;;;45.70;22.20;;;;;;;3.68;100.00;98633.69;108951;1260;57983;-63
2023/01/09 02:43:20;;;;;;;42.60;19.10;;;;;;;3.69;100.00;98623.98;109091;1258;60132;-63
2023/01/09 02:46:21;;;;;;;50.60;21.70;;;;;;;3.69;100.00;98620.45;109064;1258;72235;-65
2023/01/09 02:49:10;;;;;;;50.10;23.10;;;;;;;3.68;100.00;98617.05;109051;1258;68056;-66
2023/01/09 02:52:19;;;;;;;47.50;22.60;;;;;;;3.67;100.00;98613.06;108966;1258;72870;-63
2023/01/09 02:55:28;;;;;;;52.20;22.30;;;;;;;3.69;100.00;98618.54;108849;1259;244263;-64
2023/01/09 02:58:54;;;;;;;47.60;22.40;;;;;;;3.68;100.00;98619.11;109064;1258;60684;-63
2023/01/09 03:02:18;;;;;;;51.10;22.50;;;;;;;3.69;100.00;98618.88;109056;1259;71968;-64
2023/01/09 03:05:14;;;;;;;50.40;22.90;;;;;;;3.73;100.00;98625.63;109064;1259;67927;-64
2023/01/09 03:08:25;;;;;;;46.10;21.90;;;;;;;3.73;100.00;98629.95;108974;1259;72306;-63
2023/01/09 03:11:13;;;;;;;47.60;21.40;;;;;;;3.70;100.00;98627.73;109606;1253;58170;-64
2023/01/09 03:14:09;;;;;;;48.20;22.50;;;;;;;3.70;100.00;98627.91;109659;1251;58207;-63
2023/01/09 03:17:04;;;;;;;50.90;23.10;;;;;;;3.68;100.00;98632.31;109632;1251;72234;-63
2023/01/09 03:19:55;;;;;;;44.90;21.20;;;;;;;3.66;100.00;98633.31;109498;1251;66733;-63
2023/01/09 03:22:57;;;;;;;49.50;23.00;;;;;;;3.64;100.00;98629.27;109552;1253;73554;-63
2023/01/09 03:25:46;;;;;;;46.30;20.70;;;;;;;3.64;100.00;98626.12;109564;1252;57997;-62
2023/01/09 03:28:33;;;;;;;51.20;23.20;;;;;;;3.63;100.00;98618.96;109608;1251;60088;-62
2023/01/09 03:31:21;;;;;;;47.50;21.90;;;;;;;3.64;100.00;98614.34;109594;1251;73370;-63
2023/01/09 03:34:10;;;;;;;50.90;22.30;;;;;;;3.64;100.00;98618.16;109608;1252;66456;-62
2023/01/09 03:36:58;;;;;;;47.60;22.80;;;;;;;3.66;100.00;98614.51;109565;1251;72923;-63
2023/01/09 03:39:46;;;;;;;50.90;23.70;;;;;;;3.69;100.00;98615.94;109593;1255;57930;-64
2023/01/09 03:42:34;;;;;;;50.00;21.50;;;;;;;3.71;100.00;98617.67;109549;1252;61386;-63
2023/01/09 03:45:22;;;;;;;45.00;21.70;;;;;;;3.70;100.00;98620.23;109581;1252;70678;-65
2023/01/09 03:48:10;;;;;;;53.80;23.10;;;;;;;3.71;100.00;98620.49;109591;1252;67901;-63
2023/01/09 03:50:58;;;;;;;49.90;22.90;;;;;;;3.72;100.00;98620.08;109492;1252;71260;-63
2023/01/09 03:53:46;;;;;;;48.00;22.20;;;;;;;3.70;100.00;98618.60;109580;1252;57631;-64
2023/01/09 03:56:34;;;;;;;53.60;23.50;;;;;;;3.69;100.00;98613.27;109619;1252;61412;-63
2023/01/09 03:59:22;;;;;;;46.00;20.40;;;;;;;3.64;100.00;98614.12;108816;1253;1002388;-63
2023/01/09 04:02:10;;;;;;;46.90;21.00;;;;;;;3.61;100.00;98611.61;109593;1252;67116;-62
2023/01/09 04:04:58;;;;;;;49.80;24.10;;;;;;;3.58;100.00;98611.20;109543;1251;72723;-63
2023/01/09 04:07:46;;;;;;;59.10;24.90;;;;;;;3.54;100.00;98609.75;109578;1252;58542;-64
2023/01/09 04:10:33;;;;;;;55.50;24.20;;;;;;;3.52;100.00;98605.04;109551;1252;59943;-63
2023/01/09 04:13:22;;;;;;;50.30;21.90;;;;;;;3.48;100.00;98601.77;109635;1253;70700;-64
2023/01/09 04:16:10;;;;;;;56.50;23.90;;;;;;;3.44;100.00;98602.13;109598;1252;66852;-63
2023/01/09 04:18:58;;;;;;;46.60;20.30;;;;;;;3.38;100.00;98602.30;109577;1252;72620;-63
2023/01/09 04:21:45;;;;;;;55.90;24.90;;;;;;;3.34;100.00;98608.89;109565;1252;59736;-62
2023/01/09 04:24:34;;;;;;;51.10;22.80;;;;;;;3.30;100.00;98603.64;109652;1251;60280;-64
2023/01/09 04:27:22;;;;;;;44.30;19.90;;;;;;;3.29;100.00;98603.66;109603;1251;72129;-64
2023/01/09 04:30:11;;;;;;;58.80;25.70;;;;;;;3.28;100.00;98603.41;109622;1253;67890;-62
2023/01/09 04:32:59;;;;;;;56.10;25.60;;;;;;;3.25;100.00;98610.09;109617;1251;72442;-62
2023/01/09 04:35:47;;;;;;;51.40;23.90;;;;;;;3.23;100.00;98609.31;109584;1252;59192;-62
2023/01/09 04:38:35;;;;;;;59.00;25.10;;;;;;;3.24;100.00;98611.39;109567;1252;61012;-65
2023/01/09 04:44:28;;;;;;;58.90;24.60;;;;;;;3.23;100.00;98612.46;109556;1253;67597;-64
2023/01/09 04:47:16;;;;;;;52.70;23.10;;;;;;;3.22;100.00;98614.46;109580;1253;72705;-64
2023/01/09 04:50:05;;;;;;;54.80;23.40;;;;;;;3.22;100.00;98616.27;109597;1252;58197;-64
2023/01/09 04:52:52;;;;;;;50.30;21.00;;;;;;;3.23;100.00;98613.55;109632;1251;60311;-63
2023/01/09 04:55:41;;;;;;;61.80;26.40;;;;;;;3.22;100.00;98609.94;109567;1252;70801;-63
2023/01/09 04:58:29;;;;;;;51.30;21.50;;;;;;;3.20;100.00;98606.20;109560;1252;68504;-64
2023/01/09 05:01:17;;;;;;;51.90;21.60;;;;;;;3.20;100.00;98604.79;109569;1253;73356;-65
2023/01/09 05:04:06;;;;;;;51.50;22.00;;;;;;;3.19;100.00;98609.23;109580;1252;59279;-63
2023/01/09 05:06:54;;;;;;;52.80;22.00;;;;;;;3.18;100.00;98604.44;109545;1252;58775;-63
2023/01/09 05:09:42;;;;;;;57.50;23.20;;;;;;;3.16;100.00;98597.25;109509;1252;71948;-65
2023/01/09 05:12:33;;;;;;;53.20;23.90;;;;;;;3.17;100.00;98592.40;109420;1253;67754;-65
2023/01/09 05:15:21;;;;;;;58.10;23.80;;;;;;;3.20;100.00;98590.27;109568;1253;72616;-66
2023/01/09 05:18:09;;;;;;;58.90;24.60;;;;;;;3.22;100.00;98586.95;109586;1252;57587;-66
2023/01/09 05:20:57;;;;;;;59.00;23.80;;;;;;;3.25;100.00;98579.05;109573;1251;58944;-66
2023/01/09 05:23:46;;;;;;;59.20;25.00;;;;;;;3.27;100.00;98575.59;109589;1253;72335;-66
2023/01/09 05:26:33;;;;;;;58.20;25.20;;;;;;;3.28;100.00;98572.16;109570;1252;69054;-69
2023/01/09 05:29:21;;;;;;;50.20;20.70;;;;;;;3.30;100.00;98563.23;109585;1251;71499;-69
2023/01/09 05:32:09;;;;;;;51.40;22.60;;;;;;;3.32;100.00;98562.80;109585;1251;58028;-71
2023/01/09 05:34:57;;;;;;;61.70;25.40;;;;;;;3.32;100.00;98557.83;109613;1252;59376;-70
2023/01/09 05:37:46;;;;;;;57.80;22.90;;;;;;;3.33;100.00;98556.52;109468;1253;70677;-69
2023/01/09 05:40:34;;;;;;;63.20;26.00;;;;;;;3.34;100.00;98559.48;109579;1252;67587;-72
2023/01/09 05:43:27;;;;;;;53.70;24.10;;;;;;;3.39;100.00;98557.39;109298;1252;72451;-71
2023/01/09 05:46:15;;;;;;;51.90;22.20;;;;;;;3.36;100.00;98561.06;109479;1252;57975;-69
2023/01/09 05:49:03;;;;;;;61.60;24.20;;;;;;;3.37;100.00;98559.25;109512;1251;60361;-71
2023/01/09 05:51:52;;;;;;;58.70;24.40;;;;;;;3.41;100.00;98564.03;109523;1251;72843;-71
2023/01/09 05:54:40;;;;;;;63.10;26.90;;;;;;;3.46;100.00;98562.52;109609;1251;67865;-72
2023/01/09 05:57:28;;;;;;;57.20;25.00;;;;;;;3.46;100.00;98562.63;109584;1252;71269;-69
2023/01/09 06:00:17;;;;;;;52.40;22.10;;;;;;;3.48;100.00;98562.73;109553;1251;59311;-68
2023/01/09 06:03:05;;;;;;;55.30;25.90;;;;;;;3.49;100.00;98559.98;109535;1253;61400;-70
2023/01/09 06:05:53;;;;;;;57.80;25.90;;;;;;;3.50;100.00;98554.31;109621;1251;70917;-70
2023/01/09 06:08:41;;;;;;;57.70;21.70;;;;;;;3.52;100.00;98545.39;109597;1252;67959;-70
2023/01/09 06:11:29;;;;;;;58.60;25.40;;;;;;;3.52;100.00;98545.24;109474;1252;72633;-70
2023/01/09 06:14:17;;;;;;;56.00;25.30;;;;;;;3.52;100.00;98541.72;109578;1253;58776;-70
2023/01/09 06:17:05;;;;;;;55.60;23.10;;;;;;;3.50;100.00;98542.92;109675;1252;58018;-69
2023/01/09 06:19:53;;;;;;;57.60;26.40;;;;;;;3.48;100.00;98540.06;108850;1251;1002426;-71
2023/01/09 06:22:43;;;;;;;51.80;23.30;;;;;;;3.49;100.00;98534.05;109554;1253;68597;-70
2023/01/09 06:25:31;;;;;;;55.70;24.70;;;;;;;3.50;100.00;98532.70;109532;1252;71372;-72
2023/01/09 06:28:19;;;;;;;53.50;23.30;;;;;;;3.51;100.00;98534.10;109572;1253;57428;-71
2023/01/09 06:31:07;;;;;;;56.40;26.20;;;;;;;3.51;100.00;98531.44;109567;1253;60540;-69
2023/01/09 06:33:56;;;;;;;60.00;26.00;;;;;;;3.50;100.00;98529.23;109595;1252;72097;-69
2023/01/09 06:36:43;;;;;;;47.00;22.60;;;;;;;3.51;100.00;98523.72;109579;1253;68665;-68
2023/01/09 06:39:32;;;;;;;51.60;23.60;;;;;;;3.51;100.00;98523.69;109547;1253;73261;-71
2023/01/09 06:42:20;;;;;;;56.30;26.30;;;;;;;3.52;100.00;98523.84;109500;1253;60314;-67
2023/01/09 06:45:09;;;;;;;56.80;22.90;;;;;;;3.56;100.00;98527.37;109581;1253;61069;-71
2023/01/09 06:47:57;;;;;;;55.50;25.60;;;;;;;3.57;100.00;98521.30;109620;1253;73252;-69
2023/01/09 06:50:47;;;;;;;56.90;24.00;;;;;;;3.58;100.00;98523.36;109560;1252;67888;-66
2023/01/09 06:53:35;;;;;;;54.30;24.20;;;;;;;3.57;100.00;98524.31;109539;1252;71481;-68
2023/01/09 06:56:23;;;;;;;52.30;25.10;;;;;;;3.57;100.00;98525.55;108002;1252;1002469;-68
2023/01/09 06:59:12;;;;;;;54.00;25.00;;;;;;;3.59;100.00;98529.65;109450;1252;60325;-71
2023/01/09 07:02:00;;;;;;;54.70;24.00;;;;;;;3.62;100.00;98526.11;109657;1252;72193;-70
2023/01/09 07:04:49;;;;;;;53.90;24.20;;;;;;;3.62;100.00;98529.39;109571;1252;67137;-70
2023/01/09 07:07:39;;;;;;;47.40;20.30;;;;;;;3.65;100.00;98525.89;109527;1251;70668;-70
2023/01/09 07:10:27;;;;;;;49.80;23.60;;;;;;;3.67;100.00;98526.91;109562;1253;59310;-69
2023/01/09 07:13:15;;;;;;;47.60;22.30;;;;;;;3.71;100.00;98528.56;109629;1253;61348;-70
2023/01/09 07:16:04;;;;;;;55.80;24.00;;;;;;;3.74;100.00;98529.58;109530;1252;70165;-70
2023/01/09 07:18:53;;;;;;;55.80;23.50;;;;;;;3.75;100.00;98529.83;109620;1253;67655;-70
2023/01/09 07:21:41;;;;;;;59.00;25.50;;;;;;;3.77;100.00;98525.30;109617;1251;71229;-69
2023/01/09 07:24:29;;;;;;;52.90;24.90;;;;;;;3.79;100.00;98524.50;109535;1253;58349;-69
2023/01/09 07:27:17;;;;;;;54.10;25.80;;;;;;;3.80;100.00;98529.70;109551;1253;58709;-68
2023/01/09 07:30:06;;;;;;;50.50;23.90;;;;;;;3.80;100.00;98529.48;109523;1255;72371;-68
2023/01/09 07:32:55;;;;;;;54.50;23.80;;;;;;;3.79;100.00;98526.77;109593;1252;67831;-69
2023/01/09 07:35:43;;;;;;;48.90;22.70;;;;;;;3.81;100.00;98530.98;109594;1253;73724;-67
2023/01/09 07:38:31;;;;;;;54.50;24.70;;;;;;;3.81;100.00;98529.05;109572;1252;56923;-69
2023/01/09 07:41:19;;;;;;;55.30;23.70;;;;;;;3.80;100.00;98523.55;109548;1252;60487;-70
2023/01/09 07:44:07;;;;;;;52.70;24.60;;;;;;;3.80;100.00;98524.20;109619;1253;71956;-68
2023/01/09 07:46:58;;;;;;;51.50;24.60;;;;;;;3.81;100.00;98520.16;109572;1252;68861;-68
2023/01/09 07:49:46;;;;;;;51.30;23.80;;;;;;;3.83;100.00;98515.79;109616;1253;72379;-68
2023/01/09 07:52:34;;;;;;;53.30;25.70;;;;;;;3.86;100.00;98509.77;109563;1252;58389;-70
2023/01/09 07:55:22;;;;;;;52.70;24.10;;;;;;;3.89;100.00;98503.39;109596;1251;58701;-72
2023/01/09 07:58:10;;;;;;;54.10;25.20;;;;;;;3.91;100.00;98511.15;109642;1252;70943;-70
2023/01/09 08:00:58;;;;;;;47.60;21.90;;;;;;;3.95;100.00;98507.67;109629;1253;67728;-70
2023/01/09 08:03:46;;;;;;;44.20;20.70;;;;;;;3.98;100.00;98509.03;109566;1252;73685;-69
2023/01/09 08:06:33;;;;;;;51.80;24.20;;;;;;;4.00;100.00;98508.48;109560;1251;57187;-70
2023/01/09 08:09:22;;;;;;;52.50;24.00;;;;;;;4.05;100.00;98505.32;109556;1253;59539;-70
2023/01/09 08:12:09;;;;;;;53.90;24.50;;;;;;;4.09;100.00;98507.83;109578;1251;71190;-67
2023/01/09 08:14:58;;;;;;;57.70;24.50;;;;;;;4.14;100.00;98503.80;109563;1253;67849;-71
2023/01/09 08:17:46;;;;;;;50.70;22.80;;;;;;;4.20;100.00;98499.48;109575;1253;72903;-71
2023/01/09 08:20:34;;;;;;;47.70;21.20;;;;;;;4.24;100.00;98504.06;109588;1253;57680;-70
2023/01/09 08:23:22;;;;;;;51.80;22.70;;;;;;;4.27;100.00;98503.47;109566;1253;60128;-70
2023/01/09 08:26:11;;;;;;;52.50;22.70;;;;;;;4.25;100.00;98504.16;109609;1252;70682;-70
2023/01/09 08:28:59;;;;;;;53.60;23.10;;;;;;;4.24;100.00;98502.29;109627;1253;68530;-70
2023/01/09 08:31:46;;;;;;;52.10;23.60;;;;;;;4.27;100.00;98498.27;109626;1253;72689;-71
2023/01/09 08:34:35;;;;;;;53.30;23.70;;;;;;;4.28;100.00;98496.41;109575;1252;58004;-69
2023/01/09 08:37:23;;;;;;;53.40;23.70;;;;;;;4.31;100.00;98493.88;109570;1251;59777;-69
2023/01/09 08:40:12;;;;;;;45.00;19.30;;;;;;;4.35;99.97;98490.23;109538;1252;72349;-70
2023/01/09 08:49:26;;;;;;;52.80;23.90;;;;;;;4.47;100.00;98492.72;109427;1252;59433;-68
2023/01/09 08:52:14;;;;;;;49.10;22.40;;;;;;;4.48;99.83;98491.16;109562;1253;58800;-70
2023/01/09 08:55:02;;;;;;;52.20;24.60;;;;;;;4.51;99.86;98498.82;109550;1253;72046;-68
2023/01/09 08:57:52;;;;;;;52.30;23.50;;;;;;;4.51;99.73;98496.19;109427;1251;67599;-69
2023/01/09 09:00:40;;;;;;;56.00;25.20;;;;;;;4.50;99.20;98494.23;109532;1253;70458;-69
2023/01/09 09:03:28;;;;;;;55.90;25.20;;;;;;;4.45;99.22;98491.94;109540;1253;58520;-69
2023/01/09 09:06:16;;;;;;;55.40;24.80;;;;;;;4.47;99.65;98489.37;109537;1255;58147;-72
2023/01/09 09:09:05;;;;;;;51.30;24.30;;;;;;;4.48;99.44;98491.73;109543;1253;73429;-70
2023/01/09 09:11:53;;;;;;;48.30;21.50;;;;;;;4.48;98.92;98491.56;109537;1253;67851;-69
2023/01/09 09:18:01;;;;;;;58.10;25.80;;;;;;;4.40;99.07;98496.14;109500;1253;56951;-67
2023/01/09 09:20:48;;;;;;;57.60;26.30;;;;;;;4.35;98.80;98493.94;109556;1253;60070;-67
2023/01/09 09:23:36;;;;;;;58.90;26.20;;;;;;;4.30;98.87;98493.85;109563;1255;70670;-69
2023/01/09 09:26:24;;;;;;;58.40;25.50;;;;;;;4.25;99.20;98494.85;109505;1251;68038;-69
2023/01/09 09:29:12;;;;;;;54.50;23.00;;;;;;;4.23;99.48;98491.00;109537;1253;72605;-68
2023/01/09 09:32:00;;;;;;;60.90;26.20;;;;;;;4.18;99.36;98491.86;109522;1253;58040;-69
2023/01/09 09:34:48;;;;;;;69.40;27.10;;;;;;;4.12;99.37;98482.89;109581;1253;60323;-69
2023/01/09 09:37:37;;;;;;;58.50;24.60;;;;;;;4.08;99.80;98482.67;109545;1253;72025;-69
2023/01/09 09:41:00;;;;;;;58.90;24.80;;;;;;;4.01;99.86;98484.73;109517;1253;66519;-68
2023/01/09 09:48:02;;;;;;;61.50;25.60;;;;;;;3.80;100.00;98481.96;109507;1252;59501;-70
2023/01/09 09:51:20;;;;;;;61.50;25.80;;;;;;;3.74;100.00;98485.20;109541;1253;60117;-69
2023/01/09 09:54:14;;;;;;;54.60;25.60;;;;;;;3.69;100.00;98484.10;109578;1253;71364;-69
2023/01/09 09:57:10;;;;;;;61.30;25.70;;;;;;;3.64;100.00;98487.84;109577;1252;67758;-69
2023/01/09 09:59:58;;;;;;;63.70;27.60;;;;;;;3.62;100.00;98485.94;109599;1253;72482;-70
2023/01/09 10:03:05;;;;;;;64.00;26.80;;;;;;;3.59;100.00;98481.37;109555;1253;58559;-70
2023/01/09 10:05:56;;;;;;;62.10;26.80;;;;;;;3.55;100.00;98480.83;109552;1255;58763;-69
2023/01/09 10:09:24;;;;;;;72.50;28.80;;;;;;;3.52;100.00;98485.08;109481;1251;72308;-68
2023/01/09 10:12:21;;;;;;;59.90;26.30;;;;;;;3.49;100.00;98484.21;109585;1251;66357;-69
2023/01/09 10:15:18;;;;;;;57.30;24.10;;;;;;;3.48;100.00;98481.35;109583;1253;73661;-67
2023/01/09 10:18:21;;;;;;;67.40;28.20;;;;;;;3.45;100.00;98476.96;109398;1251;59704;-70
2023/01/09 10:21:22;;;;;;;68.60;27.60;;;;;;;3.43;100.00;98474.33;109592;1252;60082;-69
2023/01/09 10:24:41;;;;;;;63.80;26.20;;;;;;;3.41;100.00;98472.90;109573;1254;72212;-68
2023/01/09 10:28:07;;;;;;;64.90;26.70;;;;;;;3.37;100.00;98468.44;109502;1254;67782;-69
2023/01/09 10:31:22;;;;;;;65.60;25.20;;;;;;;3.32;100.00;98471.39;109524;1253;73420;-67
2023/01/09 10:34:31;;;;;;;66.70;28.10;;;;;;;3.32;100.00;98466.00;109501;1253;57858;-69
2023/01/09 10:37:29;;;;;;;67.80;26.60;;;;;;;3.36;100.00;98470.05;109529;1253;60223;-68
2023/01/09 10:40:40;;;;;;;67.70;27.80;;;;;;;3.42;100.00;98465.98;109562;1253;72479;-67
2023/01/09 10:43:48;;;;;;;61.40;25.50;;;;;;;3.49;100.00;98468.13;109612;1254;68859;-67
2023/01/09 10:46:55;;;;;;;61.00;26.90;;;;;;;3.48;100.00;98470.06;109394;1253;72871;-70
2023/01/09 10:49:46;;;;;;;64.10;26.50;;;;;;;3.45;100.00;98468.75;109401;1253;58650;-69
2023/01/09 10:52:40;;;;;;;65.40;26.50;;;;;;;3.34;100.00;98469.91;109552;1253;58748;-69
2023/01/09 10:55:49;;;;;;;67.90;26.10;;;;;;;3.33;100.00;98467.88;109541;1253;73406;-68
2023/01/09 10:58:37;;;;;;;67.10;27.10;;;;;;;3.30;100.00;98465.49;109578;1253;66429;-70
2023/01/09 11:01:36;;;;;;;66.70;26.30;;;;;;;3.28;100.00;98464.00;109520;1253;72655;-67
2023/01/09 11:04:28;;;;;;;62.40;26.30;;;;;;;3.30;100.00;98463.52;109580;1252;58827;-67
2023/01/09 11:07:19;;;;;;;58.70;24.50;;;;;;;3.35;100.00;98461.06;109504;1253;60095;-68
2023/01/09 11:10:14;;;;;;;61.70;25.30;;;;;;;3.40;100.00;98462.77;109585;1252;70538;-69
2023/01/09 11:13:14;;;;;;;61.80;26.00;;;;;;;3.41;100.00;98458.52;109414;1253;67598;-67
2023/01/09 11:16:20;;;;;;;62.20;25.50;;;;;;;3.39;100.00;98451.23;109577;1253;73259;-69
2023/01/09 11:19:14;;;;;;;62.70;24.80;;;;;;;3.40;100.00;98446.31;109527;1252;56871;-69
2023/01/09 11:22:13;;;;;;;65.10;26.80;;;;;;;3.40;100.00;98445.97;109578;1254;61103;-68
2023/01/09 11:25:04;;;;;;;65.20;27.20;;;;;;;3.39;100.00;98446.94;109554;1253;70965;-68
2023/01/09 11:28:01;;;;;;;66.90;26.50;;;;;;;3.35;100.00;98445.28;109592;1252;66351;-70
2023/01/09 11:31:01;;;;;;;65.90;28.80;;;;;;;3.39;100.00;98452.67;109467;1254;72574;-68
2023/01/09 11:33:50;;;;;;;67.30;27.00;;;;;;;3.36;100.00;98450.27;109555;1252;57991;-69
2023/01/09 11:36:38;;;;;;;62.90;26.70;;;;;;;3.36;100.00;98449.23;109295;1252;58731;-70
2023/01/09 11:39:31;;;;;;;68.00;26.90;;;;;;;3.41;100.00;98452.55;109567;1253;70898;-69
2023/01/09 11:43:06;;;;;;;63.20;27.70;;;;;;;3.48;100.00;98453.06;109462;1252;66711;-69
2023/01/09 11:45:40;;;;;;;77.10;28.50;;;;;;;3.51;100.00;98446.90;109590;1254;71406;-69
2023/01/09 11:48:55;;;;;;;68.60;26.20;;;;;;;3.48;100.00;98449.73;109481;1252;56890;-70
2023/01/09 11:51:44;;;;;;;72.10;28.90;;;;;;;3.40;100.00;98451.05;109556;1253;59888;-70
2023/01/09 11:54:36;;;;;;;68.10;27.50;;;;;;;3.40;100.00;98444.36;109258;1253;70957;-70
2023/01/09 11:57:26;;;;;;;67.80;27.60;;;;;;;3.42;100.00;98438.27;109438;1254;69051;-67
2023/01/09 12:00:34;;;;;;;66.90;28.80;;;;;;;3.44;100.00;98432.36;109470;1254;71521;-67
2023/01/09 12:03:41;;;;;;;72.40;27.90;;;;;;;3.42;100.00;98433.39;109469;1253;59667;-70
2023/01/09 12:06:59;;;;;;;73.20;28.10;;;;;;;3.44;100.00;98429.38;109499;1254;60042;-69
2023/01/09 12:10:26;;;;;;;71.90;28.80;;;;;;;3.45;100.00;98421.78;109559;1254;71820;-69
2023/01/09 12:13:57;;;;;;;76.40;29.60;;;;;;;3.50;100.00;98422.95;109527;1252;68678;-69
2023/01/09 12:17:12;;;;;;;70.80;29.20;;;;;;;3.57;100.00;98421.36;109104;1257;72557;-71
2023/01/09 12:20:23;;;;;;;79.50;29.10;;;;;;;3.55;100.00;98424.90;109017;1257;57035;-69
2023/01/09 12:23:26;;;;;;;78.10;30.40;;;;;;;3.46;100.00;98421.17;109053;1257;61034;-68
2023/01/09 12:26:21;;;;;;;78.00;29.30;;;;;;;3.40;100.00;98414.55;109051;1257;72275;-71
2023/01/09 12:29:19;;;;;;;78.60;28.80;;;;;;;3.37;100.00;98416.02;109021;1257;69039;-67
2023/01/09 12:32:37;;;;;;;70.10;26.90;;;;;;;3.35;100.00;98412.83;109037;1257;72734;-67
2023/01/09 12:35:50;;;;;;;68.50;27.10;;;;;;;3.38;100.00;98411.04;109044;1257;59355;-69
2023/01/09 12:38:53;;;;;;;70.50;26.40;;;;;;;3.37;100.00;98411.13;109029;1257;58842;-70
2023/01/09 12:42:26;;;;;;;72.10;27.80;;;;;;;3.35;100.00;98407.61;109048;1257;72245;-67
2023/01/09 12:45:38;;;;;;;71.20;27.90;;;;;;;3.33;100.00;98408.95;108935;1257;67690;-71
2023/01/09 12:48:58;;;;;;;61.10;24.40;;;;;;;3.36;100.00;98406.92;109080;1257;71414;-67
2023/01/09 12:52:31;;;;;;;64.60;25.50;;;;;;;3.36;100.00;98406.94;109009;1257;59794;-70
2023/01/09 12:55:24;;;;;;;66.20;26.30;;;;;;;3.34;100.00;98401.69;109502;1253;61119;-72
2023/01/09 12:58:34;;;;;;;62.80;25.00;;;;;;;3.38;100.00;98400.34;109522;1252;73253;-69
2023/01/09 13:01:36;;;;;;;59.10;23.60;;;;;;;3.41;100.00;98402.57;109508;1254;67694;-69
2023/01/09 13:04:33;;;;;;;56.70;23.40;;;;;;;3.41;100.00;98398.90;109544;1253;71560;-68
2023/01/09 13:07:43;;;;;;;55.70;23.30;;;;;;;3.36;100.00;98392.60;109483;1252;59039;-67
2023/01/09 13:10:44;;;;;;;52.30;20.50;;;;;;;3.36;100.00;98392.08;109371;1252;60365;-69
2023/01/09 13:13:46;;;;;;;55.70;22.10;;;;;;;3.33;100.00;98385.27;109402;1254;73290;-68
2023/01/09 13:16:43;;;;;;;60.20;22.50;;;;;;;3.29;100.00;98384.70;109349;1254;67877;-68
2023/01/09 13:19:41;;;;;;;53.70;21.50;;;;;;;3.29;100.00;98379.44;109370;1254;72387;-68
2023/01/09 13:22:29;;;;;;;55.80;22.50;;;;;;;3.31;100.00;98376.81;109307;1254;57504;-73
2023/01/09 13:25:47;;;;;;;56.00;22.90;;;;;;;3.33;100.00;98381.06;109116;1254;58693;-70
2023/01/09 13:28:48;;;;;;;57.80;23.00;;;;;;;3.35;100.00;98379.02;109334;1253;73288;-69
2023/01/09 13:31:45;;;;;;;51.20;22.20;;;;;;;3.35;100.00;98383.03;109438;1254;68690;-70